F/V Moorea — FMIT — position and weather

sailwx.info

Track history (hours):
 
Tides and Currents Weather Stations Pressure Air Temp Water Temp Dewpoint Dewpoint Depression Visibility Wind Speed Wind Dir Waves Ship Positions

F/V Moorea

Last reported at 2016-Dec-09 22:33 UTC. Time now 2016-Dec-09 23:18 UTC.
Position N 47°13' W 002°44'.

Length 18 m.

Type: Fishing. MMSI: 228239900.

Date/timePositionNaut miles runAvg speedWind from/ knotsBaromVisibWave heightAir tempDewpointWater temp
2016-Dec-09 22:33N 47°13' W 002°44'5 4.8
2016-Dec-09 21:33N 47°11' W 002°51'2 1.8
2016-Dec-09 20:33N 47°12' W 002°49'3 3.2
2016-Dec-09 19:33N 47°09' W 002°50'3 3.4
2016-Dec-09 18:33N 47°06' W 002°50'3 2.6
2016-Dec-09 17:30N 47°09' W 002°51'3 2.7
2016-Dec-09 16:33N 47°11' W 002°49'3 3.0
2016-Dec-09 15:33N 47°08' W 002°50'4 3.0
2016-Dec-09 14:18N 47°04' W 002°50'2 2.9
2016-Dec-09 13:33N 47°03' W 002°52'3 2.7
2016-Dec-09 12:33N 47°00' W 002°52'3 2.6
2016-Dec-09 11:33N 47°03' W 002°52'3 2.9
2016-Dec-09 10:33N 47°05' W 002°50'3 2.8
2016-Dec-09 09:33N 47°08' W 002°50'3 2.8
2016-Dec-09 08:33N 47°11' W 002°49'2 2.2
2016-Dec-09 07:27N 47°08' W 002°50'3 3.4
2016-Dec-09 06:33N 47°06' W 002°51'1 1.0
2016-Dec-09 05:33N 47°05' W 002°50'3 2.9
2016-Dec-09 04:33N 47°08' W 002°50'3 2.8
2016-Dec-09 03:33N 47°10' W 002°48'5 5.5
2016-Dec-09 02:33N 47°13' W 002°41'9 8.8
2016-Dec-09 01:33N 47°19' W 002°31'1 0.8
2016-Dec-09 00:33N 47°18' W 002°31'1 1.1
2016-Dec-08 23:33N 47°19' W 002°32'9 8.7
2016-Dec-08 22:33N 47°13' W 002°42'5 5.2
2016-Dec-08 21:33N 47°11' W 002°49'1 0.8
2016-Dec-08 20:33N 47°11' W 002°47'3 3.0
2016-Dec-08 19:33N 47°08' W 002°50'3 3.4
2016-Dec-08 18:33N 47°05' W 002°50'2 2.5
2016-Dec-08 17:33N 47°04' W 002°53'2 2.3
2016-Dec-08 16:33N 47°03' W 002°57'3 2.6
2016-Dec-08 15:33N 47°02' W 002°53'2 2.4
2016-Dec-08 14:33N 47°05' W 002°52'2 2.3
2016-Dec-08 13:33N 47°03' W 002°55'3 2.7
2016-Dec-08 12:33N 47°01' W 002°53'3 3.1
2016-Dec-08 11:32N 46°58' W 002°55'3 2.8
2016-Dec-08 10:29N 46°55' W 002°54'2 2.4
2016-Dec-08 09:33N 46°55' W 002°50'3 3.0
2016-Dec-08 08:33N 46°57' W 002°47'2 1.9
2016-Dec-08 07:32N 46°58' W 002°45'3 2.9
2016-Dec-08 06:31N 46°60' W 002°49'3 2.8
2016-Dec-08 05:27N 47°01' W 002°53'1 1.2
2016-Dec-08 04:33N 47°01' W 002°52'3 2.6
2016-Dec-08 03:33N 46°60' W 002°48'3 2.6
2016-Dec-08 02:30N 46°59' W 002°44'3 3.2
2016-Dec-08 01:33N 46°57' W 002°42'3 3.2
2016-Dec-08 00:32N 46°54' W 002°40'3 3.4
2016-Dec-07 23:33N 46°51' W 002°37'3 3.1
2016-Dec-07 22:33N 46°49' W 002°34'3 3.0
2016-Dec-07 21:32N 46°46' W 002°32'3 2.6
2016-Dec-07 20:15N 46°48' W 002°36'2 3.0
2016-Dec-07 19:33N 46°50' W 002°37'3 2.8
2016-Dec-07 18:32N 46°52' W 002°41'6 2.9
2016-Dec-07 16:32N 46°56' W 002°46'3 2.9
2016-Dec-07 15:33N 46°59' W 002°47'3 2.7
2016-Dec-07 14:33N 47°00' W 002°44'3 3.1
2016-Dec-07 13:33N 46°57' W 002°42'2 2.1
2016-Dec-07 12:33N 46°55' W 002°43'3 2.9
2016-Dec-07 11:33N 46°57' W 002°46'2 2.4
2016-Dec-07 10:33N 46°55' W 002°45'3 3.2
2016-Dec-07 09:30N 46°52' W 002°42'2 2.5
2016-Dec-07 08:33N 46°53' W 002°38'2 1.9
2016-Dec-07 07:31N 46°55' W 002°40'2 2.4
2016-Dec-07 06:34N 46°53' W 002°37'3 2.9
2016-Dec-07 05:33N 46°51' W 002°34'4 2.2
2016-Dec-07 03:33N 46°52' W 002°41'3 2.9
2016-Dec-07 02:33N 46°54' W 002°42'2 1.9
2016-Dec-07 01:32N 46°54' W 002°39'2 1.1
2016-Dec-06 23:30N 46°52' W 002°40'3 2.2
2016-Dec-06 22:18N 46°54' W 002°40'6 2.9
2016-Dec-06 20:19N 46°57' W 002°47'4 2.3
2016-Dec-06 18:30N 46°57' W 002°54'3 2.8
2016-Dec-06 17:30N 46°59' W 002°57'3 2.9
2016-Dec-06 16:30N 47°01' W 002°60'3 2.9
2016-Dec-06 15:33N 47°03' W 003°03'2 2.5
2016-Dec-06 14:33N 47°05' W 003°03'3 3.0
2016-Dec-06 13:33N 47°06' W 002°59'3 3.3
2016-Dec-06 12:33N 47°07' W 002°55'3 3.3
2016-Dec-06 11:33N 47°09' W 002°50'9 8.5
2016-Dec-06 10:32N 47°14' W 002°40'6 1.9
2016-Dec-06 07:33N 47°18' W 002°35'20 9.5
2016-Dec-06 05:28N 46°60' W 002°43'5 5.3
2016-Dec-06 04:31N 46°55' W 002°46'2 2.2
2016-Dec-06 03:33N 46°56' W 002°49'2 2.2
2016-Dec-06 02:33N 46°56' W 002°52'3 2.8
2016-Dec-06 01:33N 46°58' W 002°49'6 6.0
2016-Dec-06 00:33N 47°03' W 002°45'10 9.5
2016-Dec-05 23:33N 47°12' W 002°40'9 8.8
2016-Dec-05 22:33N 47°19' W 002°32'1 1.0
2016-Dec-05 21:33N 47°18' W 002°31'0 0.1
2016-Dec-05 20:33N 47°18' W 002°31'8 7.3
2016-Dec-05 19:25N 47°13' W 002°41'7 8.1
2016-Dec-05 18:33N 47°09' W 002°49'3 3.3
2016-Dec-05 17:33N 47°06' W 002°50'4 3.5
2016-Dec-05 16:24N 47°02' W 002°52'3 3.5
2016-Dec-05 15:33N 46°60' W 002°51'4 3.6
2016-Dec-05 14:31N 46°57' W 002°47'3 2.7
2016-Dec-05 13:31N 46°58' W 002°43'3 1.3
2016-Dec-05 11:30N 46°60' W 002°46'2 0.8
2016-Dec-05 09:27N 47°01' W 002°45'3 3.1
2016-Dec-05 08:33N 46°59' W 002°43'3 2.8
2016-Dec-05 07:32N 46°56' W 002°43'6 2.0
2016-Dec-05 04:30N 46°56' W 002°52'3 2.7
2016-Dec-05 03:33N 46°58' W 002°49'3 0.3
2016-Dec-04 16:15N 46°60' W 002°46'2 2.4
2016-Dec-04 15:31N 46°59' W 002°43'2 1.1
2016-Dec-04 13:24N 47°00' W 002°46'4 1.4
2016-Dec-04 10:10N 46°57' W 002°42'1 0.2
2016-Dec-04 07:19N 46°58' W 002°42'1 1.6
2016-Dec-04 06:30N 46°56' W 002°43'2 1.6
2016-Dec-04 05:27N 46°56' W 002°41'3 2.2
2016-Dec-04 04:18N 46°57' W 002°44'2 2.6
2016-Dec-04 03:25N 46°56' W 002°47'3 1.7
2016-Dec-04 01:33N 46°58' W 002°43'6 2.8
2016-Dec-03 23:28N 46°52' W 002°41'1 1.1
2016-Dec-03 22:07N 46°51' W 002°43'12 0.6
2016-Dec-03 03:33N 46°58' W 002°56'3 2.7
2016-Dec-03 02:33N 47°00' W 002°58'3 2.7
2016-Dec-03 01:33N 47°02' W 003°01'3 2.7
2016-Dec-03 00:33N 47°05' W 003°03'3 2.6
2016-Dec-02 23:33N 47°07' W 003°01'3 3.4
2016-Dec-02 22:33N 47°08' W 002°56'4 3.5
2016-Dec-02 21:33N 47°10' W 002°52'4 4.1
2016-Dec-02 20:33N 47°12' W 002°47'9 9.4
2016-Dec-02 19:33N 47°17' W 002°35'3 3.2
2016-Dec-02 18:33N 47°18' W 002°31'0 0.1
2016-Dec-02 17:31N 47°18' W 002°31'3 2.8
2016-Dec-02 16:33N 47°20' W 002°31'0 0.4
2016-Dec-02 15:30N 47°21' W 002°31'  
Track history (hours):
 
Tides and Currents Weather Stations Pressure Air Temp Water Temp Dewpoint Dewpoint Depression Visibility Wind Speed Wind Dir Waves Ship Positions

F/V Moorea

Last reported at 2016-Dec-09 22:33 UTC. Time now 2016-Dec-09 23:18 UTC.
Position N 47°13' W 002°44'.

Length 18 m.

Type: Fishing. MMSI: 228239900.

Date/timePositionNaut miles runAvg speedWind from/ knotsBaromVisibWave heightAir tempDewpointWater temp
2016-Dec-09 22:33N 47°13' W 002°44'5 4.8
2016-Dec-09 21:33N 47°11' W 002°51'2 1.8
2016-Dec-09 20:33N 47°12' W 002°49'3 3.2
2016-Dec-09 19:33N 47°09' W 002°50'3 3.4
2016-Dec-09 18:33N 47°06' W 002°50'3 2.6
2016-Dec-09 17:30N 47°09' W 002°51'3 2.7
2016-Dec-09 16:33N 47°11' W 002°49'3 3.0
2016-Dec-09 15:33N 47°08' W 002°50'4 3.0
2016-Dec-09 14:18N 47°04' W 002°50'2 2.9
2016-Dec-09 13:33N 47°03' W 002°52'3 2.7
2016-Dec-09 12:33N 47°00' W 002°52'3 2.6
2016-Dec-09 11:33N 47°03' W 002°52'3 2.9
2016-Dec-09 10:33N 47°05' W 002°50'3 2.8
2016-Dec-09 09:33N 47°08' W 002°50'3 2.8
2016-Dec-09 08:33N 47°11' W 002°49'2 2.2
2016-Dec-09 07:27N 47°08' W 002°50'3 3.4
2016-Dec-09 06:33N 47°06' W 002°51'1 1.0
2016-Dec-09 05:33N 47°05' W 002°50'3 2.9
2016-Dec-09 04:33N 47°08' W 002°50'3 2.8
2016-Dec-09 03:33N 47°10' W 002°48'5 5.5
2016-Dec-09 02:33N 47°13' W 002°41'9 8.8
2016-Dec-09 01:33N 47°19' W 002°31'1 0.8
2016-Dec-09 00:33N 47°18' W 002°31'1 1.1
2016-Dec-08 23:33N 47°19' W 002°32'9 8.7
2016-Dec-08 22:33N 47°13' W 002°42'5 5.2
2016-Dec-08 21:33N 47°11' W 002°49'1 0.8
2016-Dec-08 20:33N 47°11' W 002°47'3 3.0
2016-Dec-08 19:33N 47°08' W 002°50'3 3.4
2016-Dec-08 18:33N 47°05' W 002°50'2 2.5
2016-Dec-08 17:33N 47°04' W 002°53'2 2.3
2016-Dec-08 16:33N 47°03' W 002°57'3 2.6
2016-Dec-08 15:33N 47°02' W 002°53'2 2.4
2016-Dec-08 14:33N 47°05' W 002°52'2 2.3
2016-Dec-08 13:33N 47°03' W 002°55'3 2.7
2016-Dec-08 12:33N 47°01' W 002°53'3 3.1
2016-Dec-08 11:32N 46°58' W 002°55'3 2.8
2016-Dec-08 10:29N 46°55' W 002°54'2 2.4
2016-Dec-08 09:33N 46°55' W 002°50'3 3.0
2016-Dec-08 08:33N 46°57' W 002°47'2 1.9
2016-Dec-08 07:32N 46°58' W 002°45'3 2.9
2016-Dec-08 06:31N 46°60' W 002°49'3 2.8
2016-Dec-08 05:27N 47°01' W 002°53'1 1.2
2016-Dec-08 04:33N 47°01' W 002°52'3 2.6
2016-Dec-08 03:33N 46°60' W 002°48'3 2.6
2016-Dec-08 02:30N 46°59' W 002°44'3 3.2
2016-Dec-08 01:33N 46°57' W 002°42'3 3.2
2016-Dec-08 00:32N 46°54' W 002°40'3 3.4
2016-Dec-07 23:33N 46°51' W 002°37'3 3.1
2016-Dec-07 22:33N 46°49' W 002°34'3 3.0
2016-Dec-07 21:32N 46°46' W 002°32'3 2.6
2016-Dec-07 20:15N 46°48' W 002°36'2 3.0
2016-Dec-07 19:33N 46°50' W 002°37'3 2.8
2016-Dec-07 18:32N 46°52' W 002°41'6 2.9
2016-Dec-07 16:32N 46°56' W 002°46'3 2.9
2016-Dec-07 15:33N 46°59' W 002°47'3 2.7
2016-Dec-07 14:33N 47°00' W 002°44'3 3.1
2016-Dec-07 13:33N 46°57' W 002°42'2 2.1
2016-Dec-07 12:33N 46°55' W 002°43'3 2.9
2016-Dec-07 11:33N 46°57' W 002°46'2 2.4
2016-Dec-07 10:33N 46°55' W 002°45'3 3.2
2016-Dec-07 09:30N 46°52' W 002°42'2 2.5
2016-Dec-07 08:33N 46°53' W 002°38'2 1.9
2016-Dec-07 07:31N 46°55' W 002°40'2 2.4
2016-Dec-07 06:34N 46°53' W 002°37'3 2.9
2016-Dec-07 05:33N 46°51' W 002°34'4 2.2
2016-Dec-07 03:33N 46°52' W 002°41'3 2.9
2016-Dec-07 02:33N 46°54' W 002°42'2 1.9
2016-Dec-07 01:32N 46°54' W 002°39'2 1.1
2016-Dec-06 23:30N 46°52' W 002°40'3 2.2
2016-Dec-06 22:18N 46°54' W 002°40'6 2.9
2016-Dec-06 20:19N 46°57' W 002°47'4 2.3
2016-Dec-06 18:30N 46°57' W 002°54'3 2.8
2016-Dec-06 17:30N 46°59' W 002°57'3 2.9
2016-Dec-06 16:30N 47°01' W 002°60'3 2.9
2016-Dec-06 15:33N 47°03' W 003°03'2 2.5
2016-Dec-06 14:33N 47°05' W 003°03'3 3.0
2016-Dec-06 13:33N 47°06' W 002°59'3 3.3
2016-Dec-06 12:33N 47°07' W 002°55'3 3.3
2016-Dec-06 11:33N 47°09' W 002°50'9 8.5
2016-Dec-06 10:32N 47°14' W 002°40'6 1.9
2016-Dec-06 07:33N 47°18' W 002°35'20 9.5
2016-Dec-06 05:28N 46°60' W 002°43'5 5.3
2016-Dec-06 04:31N 46°55' W 002°46'2 2.2
2016-Dec-06 03:33N 46°56' W 002°49'2 2.2
2016-Dec-06 02:33N 46°56' W 002°52'3 2.8
2016-Dec-06 01:33N 46°58' W 002°49'6 6.0
2016-Dec-06 00:33N 47°03' W 002°45'10 9.5
2016-Dec-05 23:33N 47°12' W 002°40'9 8.8
2016-Dec-05 22:33N 47°19' W 002°32'1 1.0
2016-Dec-05 21:33N 47°18' W 002°31'0 0.1
2016-Dec-05 20:33N 47°18' W 002°31'8 7.3
2016-Dec-05 19:25N 47°13' W 002°41'7 8.1
2016-Dec-05 18:33N 47°09' W 002°49'3 3.3
2016-Dec-05 17:33N 47°06' W 002°50'4 3.5
2016-Dec-05 16:24N 47°02' W 002°52'3 3.5
2016-Dec-05 15:33N 46°60' W 002°51'4 3.6
2016-Dec-05 14:31N 46°57' W 002°47'3 2.7
2016-Dec-05 13:31N 46°58' W 002°43'3 1.3
2016-Dec-05 11:30N 46°60' W 002°46'2 0.8
2016-Dec-05 09:27N 47°01' W 002°45'3 3.1
2016-Dec-05 08:33N 46°59' W 002°43'3 2.8
2016-Dec-05 07:32N 46°56' W 002°43'6 2.0
2016-Dec-05 04:30N 46°56' W 002°52'3 2.7
2016-Dec-05 03:33N 46°58' W 002°49'3 0.3
2016-Dec-04 16:15N 46°60' W 002°46'2 2.4
2016-Dec-04 15:31N 46°59' W 002°43'2 1.1
2016-Dec-04 13:24N 47°00' W 002°46'4 1.4
2016-Dec-04 10:10N 46°57' W 002°42'1 0.2
2016-Dec-04 07:19N 46°58' W 002°42'1 1.6
2016-Dec-04 06:30N 46°56' W 002°43'2 1.6
2016-Dec-04 05:27N 46°56' W 002°41'3 2.2
2016-Dec-04 04:18N 46°57' W 002°44'2 2.6
2016-Dec-04 03:25N 46°56' W 002°47'3 1.7
2016-Dec-04 01:33N 46°58' W 002°43'6 2.8
2016-Dec-03 23:28N 46°52' W 002°41'1 1.1
2016-Dec-03 22:07N 46°51' W 002°43'12 0.6
2016-Dec-03 03:33N 46°58' W 002°56'3 2.7
2016-Dec-03 02:33N 47°00' W 002°58'3 2.7
2016-Dec-03 01:33N 47°02' W 003°01'3 2.7
2016-Dec-03 00:33N 47°05' W 003°03'3 2.6
2016-Dec-02 23:33N 47°07' W 003°01'3 3.4
2016-Dec-02 22:33N 47°08' W 002°56'4 3.5
2016-Dec-02 21:33N 47°10' W 002°52'4 4.1
2016-Dec-02 20:33N 47°12' W 002°47'9 9.4
2016-Dec-02 19:33N 47°17' W 002°35'3 3.2
2016-Dec-02 18:33N 47°18' W 002°31'0 0.1
2016-Dec-02 17:31N 47°18' W 002°31'3 2.8
2016-Dec-02 16:33N 47°20' W 002°31'0 0.4
2016-Dec-02 15:30N 47°21' W 002°31'  

Dump ship's entire track history